Lake Levels Lake Levels   »   United States   »   Texas
LAKES RIVERS MARINAS NEWS HOUSES EVENTS MAPS
1,681 Lakes:
Lake Store

Lake Levels in Texas, United States

Lake Name Current
Level
Full Pool +/-
Full Pool
Reading
Date - Time
Alan Henry (TX) 2,213.34 2,224.00 -10.66 6/23/2018  8:30 AM
Amistad (TX) 1,085.16 1,117.00 -31.84 6/23/2018  9:15 AM
Amon Carter (TX) 919.89 920.00 -0.11 6/23/2018  6:00 AM
Aquilla (TX) 536.58 537.50 -0.92 6/23/2018  9:30 AM
Arlington (TX) 548.45 550.00 -1.55 6/23/2018  7:15 AM
Arrowhead (TX) 923.75 926.00 -2.25 6/23/2018  9:00 AM
Athens (TX) 439.82 440.00 -0.18 6/23/2018  9:30 AM
Austin (TX) 492.00 492.80 -0.80 6/23/2018  9:00 AM
Bardwell (TX) 420.60 421.00 -0.40 6/23/2018  9:30 AM
Belton (TX) 591.31 594.00 -2.69 6/23/2018  9:00 AM
Benbrook (TX) 689.88 694.00 -4.12 6/23/2018  9:00 AM
Bob Sandlin (TX) 337.29 337.50 -0.21 6/22/2018  9:50 AM
Bonham (TX) 564.31 565.00 -0.69 6/23/2018  6:00 AM
Brady Creek (TX) 1,734.49 1,743.00 -8.51 6/23/2018  9:45 AM
Bridgeport (TX) 833.93 836.00 -2.07 6/23/2018  8:00 AM
Brownwood (TX) 1,419.42 1,425.00 -5.58 6/23/2018  9:30 AM
Buchanan (TX) 1,014.57 1,020.50 -5.93 6/22/2018  10:05 AM
Buffalo Creek (TX) 1,045.63 1,049.00 -3.37 6/23/2018  12:00 AM
Caddo (LA TX) 168.80 168.50 0.30 6/22/2018  6:15 AM
Canyon (TX) 904.38 909.00 -4.62 6/23/2018  1:15 AM
Cedar Creek (TX) 321.35 322.00 -0.65 6/23/2018  6:45 AM
Champion Creek (TX) 2,066.64 2,083.00 -16.36 6/22/2018  12:03 PM
Cherokee (TX) 279.31 280.00 -0.69 6/23/2018  12:45 AM
Choke Canyon (TX) 193.74 220.50 -26.76 6/23/2018  7:30 AM
Cisco (TX) 1,516.35 1,520.00 -3.65 6/23/2018  9:30 AM
Coleman (TX) 1,713.76 1,718.00 -4.24 6/23/2018  7:30 AM
Coleto Creek (TX) 95.89 98.28 -2.39 6/23/2018  8:00 AM
Colorado City (TX) 2,052.62 2,070.20 -17.58 6/22/2018  12:03 PM
Conroe (TX) 200.92 201.00 -0.08 6/23/2018  8:45 AM
Corpus Christi (TX) 91.24 94.00 -2.76 6/23/2018  8:31 AM
E. V. Spence (TX) 1,844.88 1,898.00 -53.12 6/23/2018  9:00 AM
Eagle Mountain (TX) 646.97 649.00 -2.03 6/23/2018  9:00 AM
Falcon (TX) 264.39 301.20 -36.81 6/23/2018  7:15 AM
Fork (TX) 401.86 403.00 -1.14 6/23/2018  9:30 AM
Georgetown (TX) 780.33 791.00 -10.67 6/23/2018  9:00 AM
Graham (TX) 1,073.07 1,075.00 -1.93 6/23/2018  7:00 AM
Granbury (TX) 691.77 693.00 -1.23 6/23/2018  8:30 AM
Granger (TX) 504.15 504.00 0.15 6/23/2018  12:00 AM
Grapevine (TX) 534.35 535.00 -0.65 6/23/2018  9:45 AM
Hords Creek (TX) 1,890.87 1,900.00 -9.13 6/23/2018  6:30 AM
Houston (TX) 42.13 41.70 0.43 6/23/2018  9:30 AM
Hubbard Creek (TX) 1,178.79 1,183.00 -4.21 6/23/2018  9:15 AM
Hubert M Moss (TX) 714.18 715.00 -0.82 6/23/2018  5:15 AM
Inks (TX) 887.15 886.90 0.25 6/23/2018  9:00 AM
Jacksonville (TX) 421.56 422.00 -0.44 6/23/2018  12:00 AM
JB Thomas (TX) 2,236.82 2,258.00 -21.18 6/23/2018  9:45 AM
Jim Chapman (TX) 438.77 440.00 -1.23 6/22/2018  9:50 AM
Joe Pool (TX) 521.27 522.00 -0.73 6/23/2018  4:00 AM
Kemp (TX) 1,141.80 1,144.00 -2.20 6/23/2018  9:15 AM
Kickapoo (TX) 1,041.64 1,045.00 -3.36 6/23/2018  9:00 AM
Lake O' the Pines (TX) 228.67 228.50 0.17 6/22/2018  9:50 AM
Lavon (TX) 490.92 492.00 -1.08 6/23/2018  9:00 AM
Leon (TX) 1,370.82 6/23/2018  7:45 AM
Lewisville (TX) 520.78 522.00 -1.22 6/23/2018  6:30 AM
Limestone (TX) 360.93 363.00 -2.07 6/23/2018  8:45 AM
Livingston (TX) 131.12 131.00 0.12 6/23/2018  12:00 AM
Lyndon B. Johnson (TX) 824.65 825.00 -0.35 6/22/2018  10:05 AM
MacKenzie (TX) 3,024.07 3,100.00 -75.93 6/23/2018  8:30 AM
Marble Falls (TX) 736.35 737.00 -0.65 6/22/2018  10:05 AM
Martin Creek (TX) 304.92 306.00 -1.08 6/23/2018  9:30 AM
Medina (TX) 1,041.19 1,062.00 -20.81 6/23/2018  9:00 AM
Meredith (TX) 2,887.88 2,941.00 -53.12 6/23/2018  9:30 AM
Mexia (TX) 447.46 448.30 -0.84 6/23/2018  5:15 AM
Millers Creek (TX) 1,331.29 1,334.00 -2.71 6/23/2018  9:00 AM
Mineral Wells (TX) 862.10 863.00 -0.90 6/23/2018  1:30 PM
Moss Creek (TX) 2,332.46 2,337.00 -4.54 6/23/2018  6:30 AM
Murvaul (TX) 264.66 265.50 -0.84 6/22/2018  9:50 AM
Nacogdoches (TX) 277.60 279.00 -1.40 6/22/2018  9:50 AM
Natural Dam Salt (TX) 2,447.28 2,457.00 -9.72 6/23/2018  12:00 AM
Navarro Mills (TX) 424.05 424.50 -0.45 6/23/2018  1:00 AM
Nocona (TX) 826.92 827.00 -0.08 6/23/2018  9:00 AM
O. C. Fisher (TX) 1,868.14 1,908.00 -39.86 6/23/2018  9:00 AM
O.H. Ivie (TX) 1,509.98 1,551.50 -41.52 6/23/2018  8:15 AM
Oak Creek (TX) 1,987.59 2,000.00 -12.41 6/23/2018  12:00 AM
Palestine (TX) 344.37 345.00 -0.63 6/22/2018  9:50 AM
Palo Pinto (TX) 864.29 867.00 -2.71 6/23/2018  8:15 AM
Pat Cleburne (TX) 732.44 733.60 -1.16 6/23/2018  9:00 AM
Pat Mayse (TX) 450.86 451.00 -0.14 6/22/2018  9:50 AM
Phantom Hill (TX) 1,632.80 1,635.90 -3.10 6/23/2018  7:30 AM
Possum Kingdom (TX) 997.30 1,000.00 -2.70 6/23/2018  9:38 AM
Proctor (TX) 1,157.99 1,162.00 -4.01 6/23/2018  9:30 AM
Ray Hubbard (TX) 434.38 435.50 -1.12 6/23/2018  9:30 AM
Ray Roberts (TX) 632.06 632.50 -0.44 6/23/2018  9:15 AM
Red Bluff (TX) 2,818.25 2,827.13 -8.88 6/23/2018  9:15 AM
Richland Chambers (TX) 301.17 315.00 -13.83 6/23/2018  9:38 AM
Sam Rayburn (TX) 162.62 164.40 -1.78 6/23/2018  5:00 AM
Somerville (TX) 237.55 238.00 -0.45 6/23/2018  8:00 AM
Squaw Creek (TX) 775.26 775.00 0.26 6/23/2018  1:00 AM
Stamford (TX) 1,414.36 1,417.00 -2.64 6/23/2018  6:30 AM
Steinhagen Reservoir (TX) 82.54 82.40 0.14 6/23/2018  9:00 AM
Stillhouse Hollow (TX) 616.54 622.00 -5.46 6/23/2018  6:00 AM
Tawakoni (TX) 436.75 437.50 -0.75 6/23/2018  6:30 AM
Texana (TX) 40.08 44.00 -3.92 6/23/2018  12:00 AM
Texoma (TX) 618.25 617.00 1.25 6/23/2018  9:00 AM
Toledo Bend (TX LA) 169.53 172.00 -2.47 6/23/2018  9:30 AM
Travis (TX) 662.19 681.00 -18.81 6/23/2018  9:00 AM
Twin Buttes (TX) 1,896.53 1,940.00 -43.47 6/23/2018  12:00 AM
Tyler (TX) 374.86 375.50 -0.64 6/22/2018  9:50 AM
Waco (TX) 460.72 462.00 -1.28 6/23/2018  1:15 AM
Waxahachie (TX) 530.17 6/23/2018  12:00 AM
White River (TX) 2,348.97 6/23/2018  8:15 AM
Whitney (TX) 530.55 533.00 -2.45 6/23/2018  9:15 AM
Worth (TX) 592.94 594.00 -1.06 6/23/2018  7:00 AM
Wright Patman (TX) 227.22 220.60 6.62 6/22/2018  9:50 AM


CURRENT DAILY STREAMFLOW CONDITIONS
High
90th percentile
75th - 89th percentile
25th - 74th percentile
10th - 24th percentile
10th percentile
Low
Not ranked

The colored dots on this map depict streamflow conditions as a percentile, which is computed from the period of record for the current day of the year. Only stations with at least 30 years of record are used. The gray circles indicate other stations that were not ranked in percentiles either because they have fewer than 30 years of record or because they report parameters other than streamflow. Some stations, for example, measure stage only.
U.S. Daily Streamflow Conditions



U.S. Drought Monitor